Time;durP1;ratioP1;P1;durP2;ratioP2;P2;SDS_P1;SDS_P2;PMS_P1;PMS_P2;Temp;Humidity;BMP_temperature;BMP_pressure;BME280_temperature;BME280_humidity;BME280_pressure;Samples;Min_cycle;Max_cycle;Signal;HPM_P1;HPM_P2
2024/04/03 00:02:19;;;;;;;9.35;2.63;;;11.30;99.90;;;;;;5063377;28;20039;-65
2024/04/03 00:04:45;;;;;;;9.68;2.60;;;11.30;99.90;;;;;;5062358;28;20074;-65
2024/04/03 00:07:10;;;;;;;10.35;2.97;;;11.30;99.90;;;;;;5058075;28;20033;-65
2024/04/03 00:09:36;;;;;;;4.82;2.10;;;11.30;99.90;;;;;;5055780;28;20144;-65
2024/04/03 00:12:02;;;;;;;14.07;3.78;;;11.30;99.90;;;;;;5056506;28;20037;-65
2024/04/03 00:14:27;;;;;;;12.15;2.88;;;11.20;99.90;;;;;;5057569;28;20540;-64
2024/04/03 00:16:53;;;;;;;9.68;3.17;;;11.20;99.90;;;;;;5063376;28;20554;-65
2024/04/03 00:19:18;;;;;;;9.80;3.35;;;11.30;99.90;;;;;;5076682;28;20065;-65
2024/04/03 00:21:46;;;;;;;11.75;2.78;;;11.20;99.90;;;;;;5059424;28;20500;-65
2024/04/03 00:24:12;;;;;;;12.55;2.90;;;11.30;99.90;;;;;;5061077;28;20033;-65
2024/04/03 00:26:37;;;;;;;10.65;3.25;;;11.20;99.90;;;;;;5055096;28;20090;-64
2024/04/03 00:29:03;;;;;;;10.60;3.13;;;11.20;99.90;;;;;;5059133;28;20035;-65
2024/04/03 00:31:29;;;;;;;9.70;2.63;;;11.20;99.90;;;;;;5058501;28;20020;-65
2024/04/03 00:33:54;;;;;;;7.07;2.13;;;11.20;99.90;;;;;;5057356;28;20482;-65
2024/04/03 00:36:20;;;;;;;12.25;2.67;;;11.20;99.90;;;;;;5069765;28;20032;-65
2024/04/03 00:38:45;;;;;;;8.50;3.08;;;11.20;99.90;;;;;;5060531;28;20125;-65
2024/04/03 00:41:11;;;;;;;8.38;3.10;;;11.20;99.90;;;;;;5061990;28;20513;-65
2024/04/03 00:43:36;;;;;;;13.32;3.15;;;11.20;99.90;;;;;;5060710;28;20086;-65
2024/04/03 00:46:04;;;;;;;18.63;3.63;;;11.20;99.90;;;;;;5060705;28;20136;-65
2024/04/03 00:48:30;;;;;;;15.18;3.70;;;11.10;99.90;;;;;;5064680;28;20047;-65
2024/04/03 00:50:57;;;;;;;19.77;4.28;;;11.10;99.90;;;;;;5059442;28;20040;-65
2024/04/03 00:53:23;;;;;;;9.32;3.40;;;11.10;99.90;;;;;;5058521;28;20045;-65
2024/04/03 00:55:49;;;;;;;11.02;3.40;;;11.10;99.90;;;;;;5062279;28;20420;-65
2024/04/03 00:58:15;;;;;;;12.50;4.18;;;11.00;99.90;;;;;;5056466;28;20497;-64
2024/04/03 01:00:40;;;;;;;12.43;3.88;;;11.00;99.90;;;;;;5061217;28;20524;-64
2024/04/03 01:03:06;;;;;;;9.43;3.55;;;11.00;99.90;;;;;;5059698;28;20397;-65
2024/04/03 01:05:33;;;;;;;14.45;3.97;;;10.90;99.90;;;;;;5060392;28;20091;-65
2024/04/03 01:07:58;;;;;;;13.20;3.83;;;10.80;99.90;;;;;;5055023;28;20029;-65
2024/04/03 01:10:25;;;;;;;16.02;4.78;;;10.80;99.90;;;;;;5064467;28;20028;-64
2024/04/03 01:12:51;;;;;;;14.75;4.30;;;10.80;99.90;;;;;;5054951;28;20036;-65
2024/04/03 01:15:17;;;;;;;11.75;4.45;;;10.80;99.90;;;;;;5058377;28;20040;-65
2024/04/03 01:17:42;;;;;;;12.10;4.15;;;10.80;99.90;;;;;;5057012;28;20708;-65
2024/04/03 01:20:08;;;;;;;11.93;3.97;;;10.80;99.90;;;;;;5054719;28;20067;-65
2024/04/03 01:22:35;;;;;;;13.20;4.53;;;10.70;99.90;;;;;;5063375;28;20032;-65
2024/04/03 01:25:01;;;;;;;16.38;4.85;;;10.70;99.90;;;;;;5053805;28;20103;-65
2024/04/03 01:27:28;;;;;;;15.57;4.53;;;10.70;99.90;;;;;;5057492;28;20037;-65
2024/04/03 01:29:53;;;;;;;16.88;4.60;;;10.70;99.90;;;;;;5059407;28;20516;-65
2024/04/03 01:32:19;;;;;;;16.73;4.63;;;10.70;99.90;;;;;;5064824;28;20041;-65
2024/04/03 01:34:45;;;;;;;15.15;5.32;;;10.70;99.90;;;;;;5059312;28;20020;-65
2024/04/03 01:37:11;;;;;;;13.27;4.50;;;10.70;99.90;;;;;;5057058;28;20033;-65
2024/04/03 01:39:37;;;;;;;13.38;4.18;;;10.70;99.90;;;;;;5058780;28;20740;-65
2024/04/03 01:42:02;;;;;;;15.57;4.30;;;10.60;99.90;;;;;;5054771;28;20040;-65
2024/04/03 01:44:28;;;;;;;14.63;4.00;;;10.60;99.90;;;;;;5063579;28;20032;-64
2024/04/03 01:46:53;;;;;;;21.45;4.05;;;10.60;99.90;;;;;;5061572;28;20059;-66
2024/04/03 01:49:19;;;;;;;19.52;4.57;;;10.60;99.90;;;;;;5070266;28;20127;-65
2024/04/03 01:51:45;;;;;;;10.13;3.92;;;10.60;99.90;;;;;;5064669;28;20040;-65
2024/04/03 01:54:10;;;;;;;15.25;3.92;;;10.60;99.90;;;;;;5062218;28;20056;-65
2024/04/03 01:56:36;;;;;;;19.02;3.95;;;10.50;99.90;;;;;;5061858;28;20037;-65
2024/04/03 01:59:01;;;;;;;10.15;3.80;;;10.50;99.90;;;;;;5060330;28;20562;-65
2024/04/03 02:01:27;;;;;;;16.95;4.25;;;10.50;99.90;;;;;;5066979;28;20028;-64
2024/04/03 02:03:52;;;;;;;9.45;4.20;;;10.50;99.90;;;;;;5066637;28;20043;-65
2024/04/03 02:06:19;;;;;;;18.50;4.93;;;10.50;99.90;;;;;;5064231;28;20039;-65
2024/04/03 02:08:44;;;;;;;15.15;4.80;;;10.50;99.90;;;;;;5058934;28;20083;-65
2024/04/03 02:11:10;;;;;;;16.85;4.82;;;10.50;99.90;;;;;;5063573;28;20029;-65
2024/04/03 02:13:35;;;;;;;14.07;4.82;;;10.50;99.90;;;;;;5066595;28;20025;-64
2024/04/03 02:16:01;;;;;;;16.70;4.65;;;10.60;99.90;;;;;;5060368;28;20565;-65
2024/04/03 02:18:26;;;;;;;18.42;4.78;;;10.50;99.90;;;;;;5065356;28;20129;-65
2024/04/03 02:20:52;;;;;;;13.82;4.35;;;10.50;99.90;;;;;;5060658;28;20047;-65
2024/04/03 02:23:17;;;;;;;19.25;5.30;;;10.50;99.90;;;;;;5062077;28;20601;-64
2024/04/03 02:25:43;;;;;;;16.35;5.50;;;10.40;99.90;;;;;;5060588;28;20031;-65
2024/04/03 02:28:09;;;;;;;15.68;5.35;;;10.50;99.90;;;;;;5066682;28;20115;-65
2024/04/03 02:30:34;;;;;;;15.60;4.95;;;10.50;99.90;;;;;;5061568;28;20048;-66
2024/04/03 02:33:00;;;;;;;16.55;4.85;;;10.50;99.90;;;;;;5064400;28;20076;-65
2024/04/03 02:35:29;;;;;;;13.63;4.25;;;10.50;99.90;;;;;;5060331;28;20039;-64
2024/04/03 02:37:54;;;;;;;22.90;5.55;;;10.50;99.90;;;;;;5060163;28;20047;-65
2024/04/03 02:40:20;;;;;;;17.48;5.07;;;10.50;99.90;;;;;;5063206;28;20044;-65
2024/04/03 02:42:45;;;;;;;19.30;4.80;;;10.60;99.90;;;;;;5054851;28;20036;-66
2024/04/03 02:45:11;;;;;;;12.45;5.00;;;10.60;99.90;;;;;;5061859;28;20024;-65
2024/04/03 02:47:36;;;;;;;20.13;5.28;;;10.60;99.90;;;;;;5062778;28;20051;-65
2024/04/03 02:50:02;;;;;;;20.33;4.97;;;10.50;99.90;;;;;;5058321;28;20051;-65
2024/04/03 02:52:28;;;;;;;16.08;4.45;;;10.60;99.90;;;;;;5061313;28;20032;-65
2024/04/03 02:54:53;;;;;;;18.45;4.47;;;10.60;99.90;;;;;;5060543;28;20043;-65
2024/04/03 02:57:19;;;;;;;22.60;5.05;;;10.60;99.90;;;;;;5062772;28;20078;-65
2024/04/03 02:59:44;;;;;;;16.10;5.43;;;10.60;99.90;;;;;;5065700;28;20529;-66
2024/04/03 03:02:10;;;;;;;18.60;5.40;;;10.60;99.90;;;;;;5058229;28;20051;-65
2024/04/03 03:04:43;;;;;;;16.98;4.45;;;10.60;99.90;;;;;;5059261;28;20029;-65
2024/04/03 03:07:09;;;;;;;17.45;4.53;;;10.70;99.90;;;;;;5059432;28;20036;-65
2024/04/03 03:09:36;;;;;;;16.95;5.30;;;10.60;99.90;;;;;;5058541;28;20087;-65
2024/04/03 03:12:05;;;;;;;11.43;4.45;;;10.60;99.90;;;;;;5064702;28;20028;-65
2024/04/03 03:14:30;;;;;;;19.25;5.45;;;10.60;99.90;;;;;;5060925;28;20032;-66
2024/04/03 03:16:59;;;;;;;15.43;4.55;;;10.60;99.90;;;;;;5062842;28;20218;-64
2024/04/03 03:19:25;;;;;;;16.75;4.93;;;10.60;99.90;;;;;;5059955;28;20089;-65
2024/04/03 03:21:50;;;;;;;13.05;4.63;;;10.60;99.90;;;;;;5058848;28;20033;-65
2024/04/03 03:24:18;;;;;;;22.02;5.80;;;10.60;99.90;;;;;;5061594;28;20033;-65
2024/04/03 03:26:44;;;;;;;19.33;4.88;;;10.60;99.90;;;;;;5060030;28;20041;-64
2024/04/03 03:29:09;;;;;;;18.52;4.90;;;10.60;99.90;;;;;;5057919;28;20102;-65
2024/04/03 03:31:35;;;;;;;20.38;5.20;;;10.60;99.90;;;;;;5062357;28;20027;-65
2024/04/03 03:34:01;;;;;;;17.83;4.60;;;10.60;99.90;;;;;;5064231;28;20048;-65
2024/04/03 03:36:26;;;;;;;14.70;5.22;;;10.60;99.90;;;;;;5062953;28;20038;-65
2024/04/03 03:38:52;;;;;;;18.30;5.10;;;10.50;99.90;;;;;;5059801;28;20098;-65
2024/04/03 03:41:18;;;;;;;25.33;5.68;;;10.50;99.90;;;;;;5067568;28;20028;-65
2024/04/03 03:43:43;;;;;;;18.25;5.32;;;10.60;99.90;;;;;;5058379;28;20025;-65
2024/04/03 03:46:09;;;;;;;13.32;5.03;;;10.60;99.90;;;;;;5061814;28;20063;-65
2024/04/03 03:54:03;;;;;;;13.02;4.38;;;10.60;99.90;;;;;;5056552;28;20039;-65
2024/04/03 03:56:29;;;;;;;15.50;4.30;;;10.60;99.90;;;;;;5056425;28;20040;-65
2024/04/03 03:58:54;;;;;;;14.38;4.20;;;10.60;99.90;;;;;;5058463;28;20044;-65
2024/04/03 04:01:20;;;;;;;15.73;4.00;;;10.50;99.90;;;;;;5062613;28;20067;-65
2024/04/03 04:03:46;;;;;;;17.88;3.72;;;10.60;99.90;;;;;;5058895;28;20093;-65
2024/04/03 04:06:11;;;;;;;13.77;3.70;;;10.60;99.90;;;;;;5057715;28;20032;-65
2024/04/03 04:08:38;;;;;;;12.00;3.75;;;10.60;99.90;;;;;;5057308;28;20057;-65
2024/04/03 04:11:06;;;;;;;15.35;4.00;;;10.60;99.90;;;;;;5061571;28;20020;-65
2024/04/03 04:13:32;;;;;;;11.85;3.97;;;10.60;99.90;;;;;;5064250;28;20028;-65
2024/04/03 04:16:02;;;;;;;14.73;3.90;;;10.60;99.90;;;;;;5059111;28;20433;-65
2024/04/03 04:18:29;;;;;;;20.25;4.32;;;10.70;99.90;;;;;;5061158;28;20040;-65
2024/04/03 04:20:58;;;;;;;9.75;2.67;;;10.70;99.90;;;;;;5063170;28;20150;-65
2024/04/03 04:23:24;;;;;;;17.90;3.95;;;10.70;99.90;;;;;;5061690;28;20052;-65
2024/04/03 04:26:09;;;;;;;13.13;2.95;;;10.70;99.90;;;;;;5062946;28;20511;-66
2024/04/03 04:28:35;;;;;;;10.45;2.75;;;10.70;99.90;;;;;;5064228;28;20052;-64
2024/04/03 04:31:05;;;;;;;18.10;3.63;;;10.70;99.90;;;;;;5061132;28;20033;-65
2024/04/03 04:33:37;;;;;;;12.10;2.88;;;10.70;99.90;;;;;;5044938;28;20052;-65
2024/04/03 04:36:03;;;;;;;17.35;3.33;;;10.80;99.90;;;;;;5035261;28;20033;-65
2024/04/03 04:38:29;;;;;;;14.15;3.60;;;10.70;99.90;;;;;;5039504;28;20048;-65
2024/04/03 04:40:58;;;;;;;15.65;3.05;;;10.70;99.90;;;;;;5042360;28;20426;-65
2024/04/03 04:43:26;;;;;;;15.38;3.35;;;10.70;99.90;;;;;;5053879;28;20520;-65
2024/04/03 04:46:00;;;;;;;14.65;3.15;;;10.80;99.90;;;;;;5057250;28;20501;-65
2024/04/03 04:48:28;;;;;;;17.10;3.08;;;10.80;99.90;;;;;;5054499;28;20050;-65
2024/04/03 04:50:55;;;;;;;14.55;3.20;;;10.80;99.90;;;;;;5061177;28;20044;-67
2024/04/03 04:53:21;;;;;;;14.05;3.83;;;10.80;99.90;;;;;;5056935;28;20115;-67
2024/04/03 04:55:54;;;;;;;17.95;3.00;;;10.80;99.90;;;;;;5060917;28;20123;-67
2024/04/03 04:58:20;;;;;;;13.60;2.85;;;10.80;99.90;;;;;;5052572;28;20310;-67
2024/04/03 05:00:46;;;;;;;12.18;3.17;;;10.80;99.90;;;;;;5051227;28;20097;-66
2024/04/03 05:03:12;;;;;;;8.73;2.85;;;10.80;99.90;;;;;;5066532;28;20028;-67
2024/04/03 05:05:37;;;;;;;15.35;3.38;;;10.90;99.90;;;;;;5062551;28;20040;-66
2024/04/03 05:08:05;;;;;;;13.82;3.45;;;10.90;99.90;;;;;;5062446;28;20035;-67
2024/04/03 05:10:30;;;;;;;17.10;3.90;;;10.90;99.90;;;;;;5063107;28;20032;-66
2024/04/03 05:12:56;;;;;;;14.43;3.03;;;10.90;99.90;;;;;;5055639;28;20799;-66
2024/04/03 05:15:22;;;;;;;9.60;3.30;;;10.90;99.90;;;;;;5060067;28;20044;-67
2024/04/03 05:17:48;;;;;;;14.27;3.70;;;10.80;99.90;;;;;;5055096;28;20538;-67
2024/04/03 05:20:14;;;;;;;15.15;3.53;;;11.00;99.90;;;;;;5062388;28;20037;-67
2024/04/03 05:22:39;;;;;;;18.40;3.38;;;10.90;99.90;;;;;;5063701;28;20028;-67
2024/04/03 05:25:05;;;;;;;11.45;3.72;;;10.90;99.90;;;;;;5066032;28;20040;-67
2024/04/03 05:27:32;;;;;;;9.65;3.38;;;11.00;99.90;;;;;;5069108;28;20089;-66
2024/04/03 05:29:57;;;;;;;13.75;3.30;;;11.00;99.90;;;;;;5069962;28;20537;-67
2024/04/03 05:32:23;;;;;;;12.25;3.60;;;11.00;99.90;;;;;;5068219;28;20131;-67
2024/04/03 05:34:48;;;;;;;11.23;2.80;;;11.00;99.90;;;;;;5063121;28;20016;-67
2024/04/03 05:37:14;;;;;;;17.40;3.83;;;11.00;99.90;;;;;;5056787;28;20041;-67
2024/04/03 05:39:40;;;;;;;13.88;3.75;;;11.00;99.90;;;;;;5059532;28;20555;-67
2024/04/03 05:42:05;;;;;;;12.43;4.15;;;11.10;99.90;;;;;;5063694;28;20119;-67
2024/04/03 05:44:31;;;;;;;14.60;4.10;;;11.10;99.90;;;;;;5056817;28;20035;-67
2024/04/03 05:46:56;;;;;;;15.55;3.92;;;11.10;99.90;;;;;;5061254;28;20052;-67
2024/04/03 05:49:22;;;;;;;11.93;4.18;;;11.10;99.90;;;;;;5060367;28;20044;-67
2024/04/03 05:51:47;;;;;;;14.48;4.32;;;11.10;99.90;;;;;;5052647;28;20496;-67
2024/04/03 05:54:13;;;;;;;10.80;4.53;;;11.10;99.90;;;;;;5057133;28;20044;-66
2024/04/03 05:56:39;;;;;;;19.42;5.07;;;11.10;99.90;;;;;;5056030;28;20037;-66
2024/04/03 05:59:05;;;;;;;17.75;5.50;;;11.10;99.90;;;;;;5057017;28;20079;-67
2024/04/03 06:01:33;;;;;;;18.52;5.60;;;11.10;99.90;;;;;;5049628;28;20036;-67
2024/04/03 06:03:58;;;;;;;;;;;11.20;99.90;;;;;;5056934;28;20029;-67
2024/04/03 06:06:24;;;;;;;12.02;5.13;;;11.10;99.90;;;;;;5054949;28;19912;-67
2024/04/03 06:08:49;;;;;;;16.27;5.38;;;11.10;99.90;;;;;;5054076;28;20332;-66
2024/04/03 06:11:15;;;;;;;16.23;5.90;;;11.20;99.90;;;;;;5058966;28;20040;-67
2024/04/03 06:13:40;;;;;;;16.48;5.28;;;11.20;99.90;;;;;;5061431;28;20120;-67
2024/04/03 06:16:06;;;;;;;16.02;5.93;;;11.20;99.90;;;;;;5056677;28;20033;-68
2024/04/03 06:18:32;;;;;;;14.98;5.22;;;11.20;99.90;;;;;;5061410;28;20681;-67
2024/04/03 06:20:57;;;;;;;16.77;5.15;;;11.20;99.90;;;;;;5063521;28;20131;-67
2024/04/03 06:23:23;;;;;;;15.40;5.22;;;11.20;99.90;;;;;;5055471;28;20044;-67
2024/04/03 06:25:48;;;;;;;12.35;5.47;;;11.30;99.90;;;;;;5057978;28;20040;-67
2024/04/03 06:28:14;;;;;;;19.20;5.30;;;11.30;99.90;;;;;;5046952;28;20041;-67
2024/04/03 06:30:39;;;;;;;16.08;6.20;;;11.40;99.90;;;;;;5056034;28;20041;-67
2024/04/03 06:33:05;;;;;;;17.98;5.97;;;11.40;99.90;;;;;;5060050;28;20033;-67
2024/04/03 06:35:31;;;;;;;17.80;6.22;;;11.40;99.90;;;;;;5059831;28;20021;-67
2024/04/03 06:37:56;;;;;;;14.55;5.50;;;11.50;99.90;;;;;;5066396;28;20060;-66
2024/04/03 06:40:22;;;;;;;11.40;5.40;;;11.50;99.90;;;;;;5064802;28;20052;-66
2024/04/03 06:42:47;;;;;;;16.95;5.68;;;11.50;99.90;;;;;;5055143;28;20060;-66
2024/04/03 06:45:13;;;;;;;14.52;5.75;;;11.50;99.90;;;;;;5062460;28;20037;-67
2024/04/03 06:47:39;;;;;;;16.55;6.22;;;11.60;99.90;;;;;;5063017;28;20601;-66
2024/04/03 06:50:04;;;;;;;16.30;6.80;;;11.50;99.90;;;;;;5063359;28;20469;-67
2024/04/03 06:52:30;;;;;;;17.80;6.18;;;11.60;99.90;;;;;;5070728;28;20032;-67
2024/04/03 06:54:56;;;;;;;14.75;5.72;;;11.60;99.90;;;;;;5066817;28;20041;-66
2024/04/03 06:57:22;;;;;;;17.50;5.25;;;11.60;99.90;;;;;;5065675;28;20036;-67
2024/04/03 06:59:48;;;;;;;16.98;6.25;;;11.60;99.90;;;;;;5059678;28;20037;-68
2024/04/03 07:02:13;;;;;;;9.63;4.95;;;11.60;99.90;;;;;;5057504;28;20029;-67
2024/04/03 07:04:39;;;;;;;15.00;5.22;;;11.70;99.90;;;;;;5058774;28;20044;-67
2024/04/03 07:07:07;;;;;;;9.55;4.78;;;11.60;99.90;;;;;;5062332;28;20490;-67
2024/04/03 07:09:32;;;;;;;14.77;4.85;;;11.60;99.90;;;;;;5073891;28;20113;-67
2024/04/03 07:11:58;;;;;;;8.27;4.80;;;11.60;99.90;;;;;;5065231;28;20060;-66
2024/04/03 07:14:24;;;;;;;13.35;4.78;;;11.60;99.90;;;;;;5077775;28;20545;-66
2024/04/03 07:16:49;;;;;;;8.30;4.57;;;11.60;99.90;;;;;;5064459;28;20031;-66
2024/04/03 07:19:15;;;;;;;9.80;4.82;;;11.60;99.90;;;;;;5074857;28;20044;-67
2024/04/03 07:21:42;;;;;;;12.98;5.40;;;11.70;99.90;;;;;;5067759;28;20120;-67
2024/04/03 07:24:11;;;;;;;13.30;4.82;;;11.80;99.90;;;;;;5072467;28;20040;-67
2024/04/03 07:26:37;;;;;;;15.05;5.47;;;11.80;99.90;;;;;;5073789;28;20036;-67
2024/04/03 07:29:02;;;;;;;13.20;6.03;;;11.90;99.90;;;;;;5073329;28;20370;-66
2024/04/03 07:31:28;;;;;;;18.23;5.43;;;11.80;99.90;;;;;;5067318;28;20155;-66
2024/04/03 07:33:53;;;;;;;10.05;5.22;;;11.80;99.90;;;;;;5068336;28;20098;-67
2024/04/03 07:36:21;;;;;;;14.25;5.10;;;11.80;99.90;;;;;;5062438;28;20036;-66
2024/04/03 07:38:47;;;;;;;11.57;4.88;;;11.90;99.90;;;;;;5076663;28;20524;-66
2024/04/03 07:41:24;;;;;;;9.73;4.78;;;11.90;99.90;;;;;;5070666;28;20028;-67
2024/04/03 07:43:52;;;;;;;7.47;4.18;;;11.90;99.90;;;;;;5062405;28;20024;-67
2024/04/03 07:46:17;;;;;;;10.30;5.28;;;12.00;99.90;;;;;;5071759;28;20036;-67
2024/04/03 07:48:43;;;;;;;13.40;4.57;;;12.00;99.90;;;;;;5074633;28;20028;-67
2024/04/03 07:51:09;;;;;;;10.32;4.93;;;12.10;99.90;;;;;;5070736;28;20405;-67
2024/04/03 07:53:34;;;;;;;12.65;4.80;;;12.00;99.90;;;;;;5074081;28;20039;-67
2024/04/03 07:56:00;;;;;;;11.43;5.05;;;12.00;99.90;;;;;;5064770;28;20127;-67
2024/04/03 07:58:25;;;;;;;11.38;5.07;;;12.10;99.90;;;;;;5078910;28;20032;-66
2024/04/03 08:01:01;;;;;;;13.30;5.15;;;12.20;99.90;;;;;;5070989;28;20397;-66
2024/04/03 08:03:27;;;;;;;11.13;4.63;;;12.20;99.90;;;;;;5066026;28;20033;-67
2024/04/03 08:05:53;;;;;;;10.55;4.18;;;12.20;99.90;;;;;;5065064;28;20031;-67
2024/04/03 08:08:20;;;;;;;9.07;4.05;;;12.20;99.90;;;;;;5065066;28;20062;-68
2024/04/03 08:10:45;;;;;;;8.82;4.15;;;12.30;99.90;;;;;;5063804;28;20009;-67
2024/04/03 08:13:12;;;;;;;6.68;3.05;;;12.30;99.90;;;;;;5070114;28;20029;-66
2024/04/03 08:15:37;;;;;;;7.93;3.25;;;12.30;99.90;;;;;;5064822;28;20036;-67
2024/04/03 08:18:03;;;;;;;6.47;3.20;;;12.30;99.90;;;;;;5060100;28;20107;-68
2024/04/03 08:20:29;;;;;;;9.70;3.15;;;12.40;99.90;;;;;;5064692;28;20033;-67
2024/04/03 08:22:54;;;;;;;8.38;3.67;;;12.40;99.90;;;;;;5074129;28;20121;-67
2024/04/03 08:25:20;;;;;;;6.30;3.28;;;12.30;99.90;;;;;;5065384;28;20405;-67
2024/04/03 08:27:45;;;;;;;6.82;3.63;;;12.40;99.90;;;;;;5065766;28;20695;-66
2024/04/03 08:30:11;;;;;;;5.93;2.90;;;12.40;99.90;;;;;;5066777;28;20028;-66
2024/04/03 08:32:38;;;;;;;4.43;2.90;;;12.50;99.90;;;;;;5065398;28;20035;-67
2024/04/03 08:35:04;;;;;;;4.82;3.13;;;12.50;99.90;;;;;;5064141;28;20515;-67
2024/04/03 08:37:29;;;;;;;6.07;3.40;;;12.60;99.90;;;;;;5069718;28;20028;-67
2024/04/03 08:39:55;;;;;;;6.70;3.30;;;12.60;99.90;;;;;;5067350;28;20697;-67
2024/04/03 08:42:21;;;;;;;4.72;3.33;;;12.60;99.90;;;;;;5069423;28;20040;-67
2024/04/03 08:44:47;;;;;;;6.45;3.00;;;12.70;99.90;;;;;;5075097;28;20033;-67
2024/04/03 08:47:14;;;;;;;4.90;3.20;;;12.70;99.90;;;;;;5065675;28;20115;-68
2024/04/03 08:49:40;;;;;;;4.55;2.97;;;12.70;99.90;;;;;;5070330;28;20052;-66
2024/04/03 08:52:07;;;;;;;4.82;3.70;;;12.70;99.90;;;;;;5064118;28;20048;-67
2024/04/03 08:54:33;;;;;;;5.22;3.40;;;12.70;99.90;;;;;;5066549;28;20517;-67
2024/04/03 08:57:01;;;;;;;6.22;3.70;;;12.70;99.90;;;;;;5064921;28;20049;-67
2024/04/03 08:59:31;;;;;;;7.20;3.88;;;12.60;99.90;;;;;;5068935;28;20089;-68
2024/04/03 09:01:57;;;;;;;6.88;3.83;;;12.70;99.90;;;;;;5056941;28;20021;-69
2024/04/03 09:04:22;;;;;;;5.20;3.75;;;12.80;99.90;;;;;;5067177;28;20032;-67
2024/04/03 09:06:48;;;;;;;8.07;4.47;;;12.80;99.90;;;;;;5064817;28;20087;-67
2024/04/03 09:09:20;;;;;;;4.63;3.22;;;12.90;99.90;;;;;;5062692;28;20533;-68
2024/04/03 09:11:48;;;;;;;5.80;3.75;;;13.00;99.90;;;;;;5061126;28;20389;-68
2024/04/03 09:14:20;;;;;;;5.18;3.28;;;13.00;99.90;;;;;;5066823;28;20137;-68
2024/04/03 09:16:46;;;;;;;4.80;3.45;;;12.90;99.90;;;;;;5062169;28;20021;-68
2024/04/03 09:19:13;;;;;;;7.65;4.18;;;12.90;99.90;;;;;;5059310;28;20649;-68
2024/04/03 09:21:39;;;;;;;7.30;3.80;;;12.90;99.90;;;;;;5069043;28;20056;-68
2024/04/03 09:24:06;;;;;;;6.60;3.70;;;13.00;99.90;;;;;;5070829;28;20040;-68
2024/04/03 09:26:31;;;;;;;7.95;3.10;;;13.00;99.90;;;;;;5058124;28;20606;-67
2024/04/03 09:29:02;;;;;;;6.82;2.38;;;13.00;99.90;;;;;;5061070;28;20113;-68
2024/04/03 09:31:30;;;;;;;6.55;3.30;;;13.00;99.90;;;;;;5058882;28;20052;-68
2024/04/03 09:33:55;;;;;;;5.28;2.80;;;13.00;99.90;;;;;;5059075;28;20463;-68
2024/04/03 09:36:22;;;;;;;2.45;1.83;;;13.00;99.90;;;;;;5073052;28;20040;-68
2024/04/03 09:38:49;;;;;;;4.65;2.10;;;13.00;99.90;;;;;;5070716;28;20386;-68
2024/04/03 09:41:15;;;;;;;4.65;2.25;;;13.00;99.90;;;;;;5067592;28;20060;-67
2024/04/03 09:43:45;;;;;;;3.92;2.20;;;13.00;99.90;;;;;;5065140;28;20036;-68
2024/04/03 09:46:16;;;;;;;4.22;1.60;;;13.00;99.90;;;;;;5067747;28;20041;-67
2024/04/03 09:48:47;;;;;;;2.10;1.60;;;13.00;99.90;;;;;;5065696;28;20041;-68
2024/04/03 09:51:13;;;;;;;1.58;1.30;;;13.00;99.90;;;;;;5059426;28;20040;-67
2024/04/03 09:53:40;;;;;;;6.63;1.58;;;12.90;99.90;;;;;;5055880;28;20040;-68
2024/04/03 09:56:07;;;;;;;5.68;1.42;;;13.00;99.90;;;;;;5058977;28;20047;-68
2024/04/03 09:58:36;;;;;;;4.22;1.17;;;13.00;99.90;;;;;;5061949;28;20161;-68
2024/04/03 10:01:07;;;;;;;4.28;1.92;;;12.90;99.90;;;;;;5067078;28;20056;-68
2024/04/03 10:03:36;;;;;;;3.72;1.42;;;12.90;99.90;;;;;;5056003;28;20152;-68
2024/04/03 10:06:11;;;;;;;4.10;0.90;;;12.90;99.90;;;;;;5066327;28;20140;-68
2024/04/03 10:08:41;;;;;;;1.65;1.00;;;12.90;99.90;;;;;;5063668;28;20072;-67
2024/04/03 10:11:09;;;;;;;3.50;1.05;;;12.90;99.90;;;;;;5062760;28;20021;-68
2024/04/03 10:13:36;;;;;;;0.73;0.60;;;12.90;99.90;;;;;;5056915;28;20017;-67
2024/04/03 10:16:06;;;;;;;3.60;1.15;;;12.90;99.90;;;;;;5059095;28;20284;-68
2024/04/03 10:18:36;;;;;;;2.78;1.42;;;12.90;99.90;;;;;;5054313;28;20044;-67
2024/04/03 10:21:03;;;;;;;3.10;1.15;;;12.90;99.90;;;;;;5057860;28;20043;-67
2024/04/03 10:23:28;;;;;;;2.25;1.23;;;12.90;99.90;;;;;;5059629;28;20051;-69
2024/04/03 10:25:56;;;;;;;4.78;1.30;;;12.90;99.90;;;;;;5063510;28;20029;-67
2024/04/03 10:28:21;;;;;;;2.58;1.08;;;12.80;99.90;;;;;;5062180;28;20032;-68
2024/04/03 10:30:55;;;;;;;1.33;0.90;;;12.90;99.90;;;;;;5061342;28;20029;-67
2024/04/03 10:33:21;;;;;;;2.25;0.73;;;12.90;99.90;;;;;;5066646;28;20370;-68
2024/04/03 10:35:48;;;;;;;5.28;0.98;;;13.00;99.90;;;;;;5058610;28;20046;-68
2024/04/03 10:38:14;;;;;;;2.35;0.80;;;13.00;99.90;;;;;;5066114;28;20040;-67
2024/04/03 10:40:39;;;;;;;3.50;0.80;;;13.10;99.90;;;;;;5065307;28;20017;-66
2024/04/03 10:43:05;;;;;;;4.10;0.88;;;13.30;99.90;;;;;;5069761;28;20551;-69
2024/04/03 10:45:31;;;;;;;2.65;0.57;;;13.20;99.90;;;;;;5069982;28;20041;-68
2024/04/03 10:47:56;;;;;;;5.25;1.10;;;13.30;99.90;;;;;;5068636;28;20033;-66
2024/04/03 10:50:22;;;;;;;3.03;0.88;;;13.40;99.90;;;;;;5068328;28;20044;-67
2024/04/03 10:52:50;;;;;;;3.45;0.88;;;13.50;99.90;;;;;;5066077;28;20029;-66
2024/04/03 10:55:20;;;;;;;4.35;0.90;;;13.30;99.90;;;;;;5066177;28;20044;-68
2024/04/03 10:57:52;;;;;;;1.08;0.75;;;13.30;99.90;;;;;;5064932;28;20029;-67
2024/04/03 11:00:20;;;;;;;1.60;0.85;;;13.40;99.90;;;;;;5068795;28;20044;-68
2024/04/03 11:02:46;;;;;;;;;;;13.40;99.90;;;;;;5066702;28;20036;-67
2024/04/03 11:05:14;;;;;;;2.88;1.00;;;13.50;99.90;;;;;;5062472;28;19908;-69
2024/04/03 11:07:41;;;;;;;3.53;0.80;;;13.50;99.90;;;;;;5063694;28;20031;-67
2024/04/03 11:10:11;;;;;;;3.08;1.10;;;13.50;99.90;;;;;;5069948;28;20036;-68
2024/04/03 11:12:37;;;;;;;0.93;0.38;;;13.50;99.90;;;;;;5069020;28;20048;-68
2024/04/03 11:15:03;;;;;;;3.80;1.13;;;13.60;99.90;;;;;;5067804;28;20028;-68
2024/04/03 11:17:29;;;;;;;1.75;0.73;;;13.60;99.90;;;;;;5062339;28;20041;-69
2024/04/03 11:19:54;;;;;;;1.27;0.60;;;13.60;99.90;;;;;;5070655;28;20079;-67
2024/04/03 11:22:20;;;;;;;3.17;0.70;;;13.50;99.90;;;;;;5067079;28;20044;-67
2024/04/03 11:24:45;;;;;;;2.83;0.90;;;13.50;99.90;;;;;;5069348;28;20044;-67
2024/04/03 11:27:11;;;;;;;1.15;0.77;;;13.40;99.90;;;;;;5070943;28;20028;-66
2024/04/03 11:29:40;;;;;;;2.55;0.70;;;13.50;99.90;;;;;;5071532;28;20123;-67
2024/04/03 11:32:06;;;;;;;2.90;0.80;;;13.40;99.90;;;;;;5070150;28;20121;-67
2024/04/03 11:34:32;;;;;;;4.88;1.00;;;13.40;99.90;;;;;;5075731;28;20714;-68
2024/04/03 11:36:59;;;;;;;3.85;0.90;;;13.40;99.90;;;;;;5064452;28;20140;-67
2024/04/03 11:39:29;;;;;;;1.92;0.75;;;13.40;99.90;;;;;;5068078;28;20577;-66
2024/04/03 11:41:57;;;;;;;4.15;0.73;;;13.40;99.90;;;;;;5067689;28;20034;-68
2024/04/03 11:44:23;;;;;;;0.57;0.30;;;13.50;99.90;;;;;;5065491;28;20036;-66
2024/04/03 11:46:48;;;;;;;4.00;0.65;;;13.60;99.90;;;;;;5068563;28;20040;-67
2024/04/03 11:49:14;;;;;;;3.20;0.70;;;13.60;99.90;;;;;;5066591;28;20037;-67
2024/04/03 11:51:39;;;;;;;1.35;0.80;;;13.80;99.90;;;;;;5068352;28;20366;-67
2024/04/03 11:54:07;;;;;;;2.17;0.80;;;13.80;99.90;;;;;;5068493;28;20028;-68
2024/04/03 11:56:33;;;;;;;3.87;1.00;;;13.90;99.90;;;;;;5076647;28;20112;-67
2024/04/03 11:58:59;;;;;;;2.53;0.88;;;13.90;99.90;;;;;;5072510;28;20037;-67
2024/04/03 12:01:25;;;;;;;3.47;0.90;;;13.90;99.90;;;;;;5070316;28;20028;-68
2024/04/03 12:03:51;;;;;;;5.28;0.95;;;13.90;99.90;;;;;;5068044;28;20489;-67
2024/04/03 12:06:16;;;;;;;3.15;0.90;;;13.90;99.90;;;;;;5070875;28;20060;-66
2024/04/03 12:08:48;;;;;;;3.75;0.77;;;13.80;99.90;;;;;;5073663;28;20051;-67
2024/04/03 12:11:14;;;;;;;3.97;0.60;;;13.80;99.90;;;;;;5071263;28;20024;-68
2024/04/03 12:13:39;;;;;;;4.07;0.88;;;13.80;99.90;;;;;;5071938;28;20534;-69
2024/04/03 12:16:05;;;;;;;2.40;0.65;;;13.80;99.90;;;;;;5068301;28;20132;-67
2024/04/03 12:18:50;;;;;;;0.85;0.63;;;13.80;99.90;;;;;;5071290;28;20074;-68
2024/04/03 12:21:16;;;;;;;2.97;1.27;;;13.80;99.90;;;;;;5073003;28;20198;-67
2024/04/03 12:23:42;;;;;;;3.53;1.48;;;13.80;99.90;;;;;;5070260;28;20024;-67
2024/04/03 12:26:09;;;;;;;1.55;0.75;;;13.70;99.90;;;;;;5074156;28;20052;-68
2024/04/03 12:28:35;;;;;;;5.03;0.65;;;13.60;99.90;;;;;;5068832;28;20028;-65
2024/04/03 12:31:00;;;;;;;4.68;0.90;;;13.60;99.90;;;;;;5068743;28;20036;-67
2024/04/03 12:33:26;;;;;;;4.55;1.05;;;13.60;99.90;;;;;;5071620;28;20039;-66
2024/04/03 12:35:51;;;;;;;3.10;0.80;;;13.50;99.90;;;;;;5067889;28;20070;-68
2024/04/03 12:38:17;;;;;;;2.88;0.90;;;13.40;99.90;;;;;;5069405;28;20473;-68
2024/04/03 12:40:43;;;;;;;1.83;0.93;;;13.40;99.90;;;;;;5067801;28;20364;-66
2024/04/03 12:43:10;;;;;;;5.38;1.20;;;13.50;99.90;;;;;;5070732;28;20087;-67